Time;durP1;ratioP1;P1;durP2;ratioP2;P2;SDS_P1;SDS_P2;PMS_P1;PMS_P2;Temp;Humidity;BMP_temperature;BMP_pressure;BME280_temperature;BME280_humidity;BME280_pressure;Samples;Min_cycle;Max_cycle;Signal;HPM_P1;HPM_P2
2023/04/27 00:01:00;;;;;;;;;;;2.90;62.50;;;;;;4127069;28;19918;-85
2023/04/27 00:03:04;;;;;;;;;;;2.90;62.70;;;;;;4127658;28;20280;-85
2023/04/27 00:05:10;;;;;;;;;;;3.00;62.60;;;;;;4116949;28;19961;-85
2023/04/27 00:07:11;;;;;;;;;;;2.90;62.40;;;;;;4142245;28;19971;-85
2023/04/27 00:09:11;;;;;;;;;;;2.90;62.50;;;;;;4111949;28;19929;-85
2023/04/27 00:11:12;;;;;;;;;;;2.90;62.60;;;;;;4129982;28;19985;-85
2023/04/27 00:13:13;;;;;;;;;;;2.90;62.50;;;;;;4113085;28;19965;-86
2023/04/27 00:15:16;;;;;;;;;;;2.80;62.40;;;;;;4128094;28;19936;-86
2023/04/27 00:17:17;;;;;;;;;;;2.90;62.30;;;;;;4131806;28;19914;-85
2023/04/27 00:19:17;;;;;;;;;;;2.90;62.60;;;;;;4129395;28;19922;-85
2023/04/27 00:21:18;;;;;;;;;;;2.80;62.60;;;;;;4126396;28;19918;-85
2023/04/27 00:23:21;;;;;;;;;;;2.90;62.40;;;;;;4127818;28;19973;-84
2023/04/27 00:25:24;;;;;;;;;;;2.80;62.40;;;;;;4127233;28;19949;-85
2023/04/27 00:27:25;;;;;;;;;;;2.80;62.50;;;;;;4111981;28;20017;-85
2023/04/27 00:29:25;;;;;;;;;;;2.80;62.40;;;;;;4128744;28;19914;-86
2023/04/27 00:31:26;;;;;;;;;;;2.80;62.40;;;;;;4122887;28;19914;-85
2023/04/27 00:33:26;;;;;;;;;;;2.80;62.40;;;;;;4124775;28;19953;-85
2023/04/27 00:35:27;;;;;;;;;;;2.80;62.50;;;;;;4126033;28;20551;-85
2023/04/27 00:37:28;;;;;;;;;;;2.80;62.80;;;;;;4110357;28;19980;-85
2023/04/27 00:39:28;;;;;;;;;;;2.80;63.30;;;;;;4103447;28;19923;-85
2023/04/27 00:41:34;;;;;;;;;;;2.80;64.20;;;;;;4119854;28;19957;-85
2023/04/27 00:43:55;;;;;;;;;;;2.80;64.90;;;;;;4126810;28;19921;-85
2023/04/27 00:46:16;;;;;;;;;;;2.80;64.80;;;;;;4134966;28;20755;-85
2023/04/27 00:48:16;;;;;;;;;;;2.90;65.60;;;;;;4126522;28;19925;-85
2023/04/27 00:50:23;;;;;;;;;;;2.90;66.00;;;;;;4114662;28;19926;-85
2023/04/27 00:52:24;;;;;;;;;;;3.00;65.10;;;;;;4123649;28;19929;-85
2023/04/27 00:54:28;;;;;;;;;;;3.00;65.40;;;;;;4110467;28;20409;-85
2023/04/27 00:56:28;;;;;;;;;;;2.90;65.30;;;;;;4110583;28;19925;-85
2023/04/27 00:58:29;;;;;;;;;;;2.90;65.00;;;;;;4126373;28;19953;-86
2023/04/27 01:00:34;;;;;;;;;;;3.10;65.10;;;;;;4120050;28;20717;-85
2023/04/27 01:02:35;;;;;;;;;;;3.00;65.10;;;;;;4138634;28;19917;-85
2023/04/27 01:04:36;;;;;;;;;;;3.00;65.00;;;;;;4124547;28;19925;-85
2023/04/27 01:06:38;;;;;;;;;;;3.10;65.00;;;;;;4109266;28;20143;-85
2023/04/27 01:08:38;;;;;;;;;;;3.10;65.00;;;;;;4109810;28;19954;-85
2023/04/27 01:10:40;;;;;;;;;;;3.10;65.20;;;;;;4128311;28;20017;-86
2023/04/27 01:12:40;;;;;;;;;;;3.20;64.90;;;;;;4137713;28;19914;-85
2023/04/27 01:14:41;;;;;;;;;;;3.10;64.80;;;;;;4125878;28;19922;-85
2023/04/27 01:16:49;;;;;;;;;;;3.00;64.70;;;;;;4125829;28;19992;-85
2023/04/27 01:18:53;;;;;;;;;;;3.10;64.80;;;;;;4129051;28;20076;-85
2023/04/27 01:20:54;;;;;;;;;;;3.00;64.90;;;;;;4125757;28;19918;-85
2023/04/27 01:23:04;;;;;;;;;;;3.10;64.90;;;;;;4127974;28;19922;-86
2023/04/27 01:25:06;;;;;;;;;;;3.00;64.90;;;;;;4125081;28;19917;-85
2023/04/27 01:27:07;;;;;;;;;;;3.10;64.90;;;;;;4127926;28;19953;-85
2023/04/27 01:29:07;;;;;;;;;;;3.10;64.90;;;;;;4129122;28;19915;-86
2023/04/27 01:31:11;;;;;;;;;;;3.00;64.80;;;;;;4111054;28;19918;-85
2023/04/27 01:33:12;;;;;;;;;;;3.00;64.60;;;;;;4127713;28;20017;-85
2023/04/27 01:35:12;;;;;;;;;;;3.10;64.80;;;;;;4111096;28;19922;-85
2023/04/27 01:37:14;;;;;;;;;;;3.00;64.70;;;;;;4130454;28;19932;-87
2023/04/27 01:39:15;;;;;;;;;;;3.00;64.70;;;;;;4124697;28;19956;-85
2023/04/27 01:41:15;;;;;;;;;;;3.10;64.70;;;;;;4146507;23;19925;-87
2023/04/27 01:43:16;;;;;;;;;;;3.10;64.70;;;;;;4141809;28;19917;-89
2023/04/27 01:45:16;;;;;;;;;;;3.00;64.70;;;;;;4128457;28;19948;-85
2023/04/27 01:47:17;;;;;;;;;;;2.90;64.80;;;;;;4142351;28;19995;-85
2023/04/27 01:49:17;;;;;;;;;;;2.90;64.70;;;;;;4146718;28;19984;-85
2023/04/27 01:51:19;;;;;;;;;;;2.90;64.80;;;;;;4136904;28;19914;-87
2023/04/27 01:53:19;;;;;;;;;;;2.90;64.80;;;;;;4133091;28;19913;-85
2023/04/27 01:55:20;;;;;;;;;;;2.90;64.70;;;;;;4133326;28;19953;-85
2023/04/27 01:57:21;;;;;;;;;;;2.80;64.60;;;;;;4128989;28;19913;-86
2023/04/27 01:59:41;;;;;;;;;;;2.80;64.90;;;;;;4126529;28;19946;-88
2023/04/27 02:02:02;;;;;;;;;;;2.80;64.90;;;;;;4124997;28;19921;-86
2023/04/27 02:04:03;;;;;;;;;;;2.90;64.90;;;;;;4114622;28;19917;-86
2023/04/27 02:06:04;;;;;;;;;;;2.80;64.90;;;;;;4123872;28;19982;-85
2023/04/27 02:08:05;;;;;;;;;;;2.80;64.70;;;;;;4131247;28;19913;-85
2023/04/27 02:10:05;;;;;;;;;;;2.70;64.60;;;;;;4111508;28;19922;-88
2023/04/27 02:12:06;;;;;;;;;;;2.70;64.80;;;;;;4126531;28;19933;-85
2023/04/27 02:14:06;;;;;;;;;;;2.70;64.80;;;;;;4129746;28;20054;-88
2023/04/27 02:16:07;;;;;;;;;;;2.70;64.80;;;;;;4117555;28;19985;-84
2023/04/27 02:18:08;;;;;;;;;;;2.80;64.80;;;;;;4138036;28;19918;-87
2023/04/27 02:20:09;;;;;;;;;;;2.80;64.60;;;;;;4135044;28;19918;-87
2023/04/27 02:22:10;;;;;;;;;;;2.70;64.50;;;;;;4117995;28;20021;-86
2023/04/27 02:24:10;;;;;;;;;;;2.70;64.50;;;;;;4116722;28;19911;-86
2023/04/27 02:26:14;;;;;;;;;;;2.70;64.40;;;;;;4130898;28;19914;-85
2023/04/27 02:28:15;;;;;;;;;;;2.70;64.40;;;;;;4129790;28;19918;-85
2023/04/27 02:30:15;;;;;;;;;;;2.70;64.70;;;;;;4112053;28;19929;-85
2023/04/27 02:32:16;;;;;;;;;;;2.60;64.60;;;;;;4109721;28;20076;-87
2023/04/27 02:34:17;;;;;;;;;;;2.70;64.70;;;;;;4123243;28;19928;-86
2023/04/27 02:36:18;;;;;;;;;;;2.60;64.70;;;;;;4107210;28;19957;-84
2023/04/27 02:38:18;;;;;;;;;;;2.60;64.70;;;;;;4127067;28;19910;-88
2023/04/27 02:40:19;;;;;;;;;;;2.60;64.90;;;;;;4121792;28;19924;-85
2023/04/27 02:42:20;;;;;;;;;;;2.60;64.90;;;;;;4123268;28;19973;-84
2023/04/27 02:44:21;;;;;;;;;;;2.60;64.80;;;;;;4111617;28;19953;-86
2023/04/27 02:46:22;;;;;;;;;;;2.60;64.80;;;;;;4122277;28;19965;-87
2023/04/27 02:48:22;;;;;;;;;;;2.70;64.90;;;;;;4111853;28;19922;-87
2023/04/27 02:50:23;;;;;;;;;;;2.50;64.80;;;;;;4122487;28;19917;-85
2023/04/27 02:52:24;;;;;;;;;;;2.60;65.00;;;;;;4108715;28;19929;-85
2023/04/27 02:54:44;;;;;;;;;;;2.60;64.90;;;;;;4124234;28;19933;-84
2023/04/27 02:57:05;;;;;;;;;;;2.50;64.80;;;;;;4125725;28;19924;-85
2023/04/27 02:59:26;;;;;;;;;;;2.50;65.60;;;;;;4124092;28;19922;-84
2023/04/27 03:01:46;;;;;;;;;;;2.60;65.00;;;;;;4123998;28;19928;-87
2023/04/27 03:03:49;;;;;;;;;;;2.50;65.00;;;;;;4123502;28;19913;-86
2023/04/27 03:06:10;;;;;;;;;;;2.50;65.10;;;;;;4121636;28;20061;-87
2023/04/27 03:08:31;;;;;;;;;;;2.40;65.10;;;;;;4123406;28;19985;-86
2023/04/27 03:10:51;;;;;;;;;;;2.40;65.30;;;;;;4125215;28;19909;-84
2023/04/27 03:13:13;;;;;;;;;;;2.40;65.30;;;;;;4124405;28;19910;-87
2023/04/27 03:15:33;;;;;;;;;;;2.40;65.20;;;;;;4124464;28;19917;-85
2023/04/27 03:17:54;;;;;;;;;;;2.40;65.50;;;;;;4125571;28;20001;-86
2023/04/27 03:20:15;;;;;;;;;;;2.40;65.20;;;;;;4124278;28;20331;-85
2023/04/27 03:22:35;;;;;;;;;;;2.30;65.20;;;;;;4124077;28;19914;-86
2023/04/27 03:24:56;;;;;;;;;;;2.30;65.20;;;;;;4135158;28;19983;-85
2023/04/27 03:27:16;;;;;;;;;;;2.30;65.20;;;;;;4126570;28;19965;-85
2023/04/27 03:29:37;;;;;;;;;;;2.40;65.30;;;;;;4123172;28;19969;-85
2023/04/27 03:31:58;;;;;;;;;;;2.40;65.30;;;;;;4123347;28;19941;-87
2023/04/27 03:34:20;;;;;;;;;;;2.30;65.60;;;;;;4121711;28;19941;-85
2023/04/27 03:36:21;;;;;;;;;;;2.30;65.50;;;;;;4123925;28;19926;-85
2023/04/27 03:38:21;;;;;;;;;;;2.20;65.30;;;;;;4107565;28;19914;-89
2023/04/27 03:40:22;;;;;;;;;;;2.30;65.30;;;;;;4111364;28;19957;-88
2023/04/27 03:42:23;;;;;;;;;;;2.30;65.40;;;;;;4120496;28;19914;-86
2023/04/27 03:44:23;;;;;;;;;;;2.20;65.30;;;;;;4121795;28;19965;-84
2023/04/27 03:46:24;;;;;;;;;;;2.30;65.50;;;;;;4123923;28;19910;-85
2023/04/27 03:48:25;;;;;;;;;;;2.30;65.40;;;;;;4120958;28;19960;-87
2023/04/27 03:50:25;;;;;;;;;;;2.30;65.60;;;;;;4104005;28;20443;-85
2023/04/27 03:52:26;;;;;;;;;;;2.30;65.70;;;;;;4118432;28;19928;-84
2023/04/27 03:54:27;;;;;;;;;;;2.30;65.70;;;;;;4120428;28;20108;-85
2023/04/27 03:56:27;;;;;;;;;;;2.30;66.00;;;;;;4120575;28;19913;-85
2023/04/27 03:58:28;;;;;;;;;;;2.40;66.10;;;;;;4106635;28;19915;-84
2023/04/27 04:00:31;;;;;;;;;;;2.30;66.10;;;;;;4124130;28;20447;-86
2023/04/27 04:02:32;;;;;;;;;;;2.40;66.20;;;;;;4121032;28;19929;-86
2023/04/27 04:04:32;;;;;;;;;;;2.30;66.10;;;;;;4122809;28;20024;-86
2023/04/27 04:06:33;;;;;;;;;;;2.40;66.30;;;;;;4121854;28;20474;-84
2023/04/27 04:08:33;;;;;;;;;;;2.40;66.20;;;;;;4125893;28;19917;-87
2023/04/27 04:10:34;;;;;;;;;;;2.40;66.30;;;;;;4108811;28;19926;-85
2023/04/27 04:12:35;;;;;;;;;;;2.40;66.30;;;;;;4119653;28;20394;-85
2023/04/27 04:14:35;;;;;;;;;;;2.40;66.50;;;;;;4122859;28;19922;-84
2023/04/27 04:16:36;;;;;;;;;;;2.30;66.60;;;;;;4113427;28;19941;-85
2023/04/27 04:18:37;;;;;;;;;;;2.40;67.00;;;;;;4120451;28;19926;-84
2023/04/27 04:20:37;;;;;;;;;;;2.40;67.00;;;;;;4111631;28;19942;-84
2023/04/27 04:22:38;;;;;;;;;;;2.50;67.10;;;;;;4120484;28;19922;-86
2023/04/27 04:24:39;;;;;;;;;;;2.40;67.00;;;;;;4121534;28;19914;-85
2023/04/27 04:26:39;;;;;;;;;;;2.40;67.10;;;;;;4126157;28;19965;-85
2023/04/27 04:28:40;;;;;;;;;;;2.40;67.20;;;;;;4109063;28;19924;-85
2023/04/27 04:30:42;;;;;;;;;;;2.50;67.50;;;;;;4123199;28;19997;-86
2023/04/27 04:32:43;;;;;;;;;;;2.50;67.30;;;;;;4110082;28;19985;-85
2023/04/27 04:34:50;;;;;;;;;;;2.50;67.20;;;;;;4124813;28;19956;-85
2023/04/27 04:36:51;;;;;;;;;;;2.50;67.00;;;;;;4108318;28;19918;-85
2023/04/27 04:38:52;;;;;;;;;;;2.50;67.00;;;;;;4124135;28;19976;-85
2023/04/27 04:40:53;;;;;;;;;;;2.60;66.90;;;;;;4101652;28;19929;-85
2023/04/27 04:42:54;;;;;;;;;;;2.60;67.70;;;;;;4125313;28;19913;-87
2023/04/27 04:44:55;;;;;;;;;;;2.60;66.70;;;;;;4125027;28;19914;-84
2023/04/27 04:46:56;;;;;;;;;;;2.60;66.70;;;;;;4107029;28;20072;-85
2023/04/27 04:48:57;;;;;;;;;;;2.70;67.00;;;;;;4125577;28;19918;-85
2023/04/27 04:50:57;;;;;;;;;;;2.70;66.90;;;;;;4121467;28;20107;-86
2023/04/27 04:52:58;;;;;;;;;;;2.70;66.90;;;;;;4115060;28;20008;-86
2023/04/27 04:54:58;;;;;;;;;;;2.90;67.20;;;;;;4140766;28;19918;-85
2023/04/27 04:57:01;;;;;;;;;;;2.80;67.30;;;;;;4122786;28;19960;-84
2023/04/27 04:59:01;;;;;;;;;;;2.90;67.60;;;;;;4109421;28;19910;-85
2023/04/27 05:01:02;;;;;;;;;;;3.00;67.70;;;;;;4130134;28;19925;-84
2023/04/27 05:03:03;;;;;;;;;;;3.00;67.80;;;;;;4124031;28;19918;-85
2023/04/27 05:05:03;;;;;;;;;;;3.00;68.90;;;;;;4126438;28;19917;-85
2023/04/27 05:07:05;;;;;;;;;;;3.10;68.40;;;;;;4124467;28;20482;-85
2023/04/27 05:09:06;;;;;;;;;;;3.10;68.50;;;;;;4124900;28;19972;-85
2023/04/27 05:11:06;;;;;;;;;;;3.20;68.60;;;;;;4124562;28;20007;-84
2023/04/27 05:13:07;;;;;;;;;;;3.30;69.00;;;;;;4118916;28;19926;-84
2023/04/27 05:15:17;;;;;;;;;;;3.30;69.10;;;;;;4121534;28;20005;-85
2023/04/27 05:17:20;;;;;;;;;;;3.40;69.20;;;;;;4110815;28;19925;-86
2023/04/27 05:19:21;;;;;;;;;;;3.50;69.40;;;;;;4127202;28;19997;-85
2023/04/27 05:21:21;;;;;;;;;;;3.50;69.60;;;;;;4127740;28;19921;-86
2023/04/27 05:23:22;;;;;;;;;;;3.60;70.50;;;;;;4125509;28;19942;-86
2023/04/27 05:25:23;;;;;;;;;;;3.70;69.90;;;;;;4125272;28;19921;-86
2023/04/27 05:27:23;;;;;;;;;;;3.80;70.10;;;;;;4124526;28;19922;-88
2023/04/27 05:29:24;;;;;;;;;;;3.80;69.90;;;;;;4125278;28;19924;-85
2023/04/27 05:31:24;;;;;;;;;;;3.90;69.50;;;;;;4128719;28;19994;-88
2023/04/27 05:33:25;;;;;;;;;;;4.00;69.10;;;;;;4126663;28;19937;-88
2023/04/27 05:35:25;;;;;;;;;;;4.10;68.90;;;;;;4129725;28;19918;-86
2023/04/27 05:37:26;;;;;;;;;;;4.10;68.60;;;;;;4115799;28;19918;-86
2023/04/27 05:39:27;;;;;;;;;;;4.20;68.80;;;;;;4134719;28;19921;-88
2023/04/27 05:41:28;;;;;;;;;;;4.20;68.50;;;;;;4137937;28;19917;-86
2023/04/27 05:43:29;;;;;;;;;;;4.30;68.70;;;;;;4127725;28;19956;-88
2023/04/27 05:45:29;;;;;;;;;;;4.50;68.60;;;;;;4121525;28;19922;-85
2023/04/27 05:47:30;;;;;;;;;;;4.50;68.40;;;;;;4111337;28;19929;-86
2023/04/27 05:49:30;;;;;;;;;;;4.50;68.30;;;;;;4125076;28;19918;-85
2023/04/27 05:51:32;;;;;;;;;;;4.60;68.20;;;;;;4128759;28;19914;-85
2023/04/27 05:53:33;;;;;;;;;;;4.70;68.20;;;;;;4139133;28;19910;-86
2023/04/27 05:55:33;;;;;;;;;;;4.80;67.90;;;;;;4125343;28;20005;-86
2023/04/27 05:57:34;;;;;;;;;;;4.80;67.30;;;;;;4131340;28;19913;-87
2023/04/27 05:59:34;;;;;;;;;;;4.80;66.50;;;;;;4128806;28;19960;-87
2023/04/27 06:01:35;;;;;;;;;;;4.90;66.20;;;;;;4131360;28;19910;-85
2023/04/27 06:03:36;;;;;;;;;;;4.90;66.00;;;;;;4127422;28;19910;-88
2023/04/27 06:05:37;;;;;;;;;;;5.00;66.00;;;;;;4129378;28;19917;-86
2023/04/27 06:07:38;;;;;;;;;;;5.00;65.90;;;;;;4128970;28;20009;-85
2023/04/27 06:09:39;;;;;;;;;;;5.10;65.90;;;;;;4130336;28;19934;-89
2023/04/27 06:11:39;;;;;;;;;;;5.10;65.80;;;;;;4128575;28;19955;-85
2023/04/27 06:13:40;;;;;;;;;;;5.20;66.70;;;;;;4129386;28;19941;-87
2023/04/27 06:15:41;;;;;;;;;;;5.10;66.00;;;;;;4128494;28;19917;-87
2023/04/27 06:17:42;;;;;;;;;;;5.30;66.20;;;;;;4133675;28;19973;-88
2023/04/27 06:19:43;;;;;;;;;;;5.20;65.90;;;;;;4135298;28;19972;-87
2023/04/27 06:21:43;;;;;;;;;;;5.40;65.90;;;;;;4132795;28;19914;-86
2023/04/27 06:23:44;;;;;;;;;;;5.40;65.70;;;;;;4124774;28;19914;-84
2023/04/27 06:25:45;;;;;;;;;;;5.40;65.70;;;;;;4122790;28;19955;-85
2023/04/27 06:27:46;;;;;;;;;;;5.50;65.80;;;;;;4118645;28;19918;-89
2023/04/27 06:29:46;;;;;;;;;;;5.60;65.60;;;;;;4125999;28;19916;-85
2023/04/27 06:31:47;;;;;;;;;;;5.60;65.30;;;;;;4141776;28;20191;-85
2023/04/27 06:33:47;;;;;;;;;;;5.70;65.30;;;;;;4120137;28;19980;-85
2023/04/27 06:35:48;;;;;;;;;;;5.80;65.10;;;;;;4124411;28;19968;-86
2023/04/27 06:37:49;;;;;;;;;;;5.90;65.10;;;;;;4118574;28;20534;-86
2023/04/27 06:39:49;;;;;;;;;;;5.90;64.90;;;;;;4110079;28;19914;-84
2023/04/27 06:41:50;;;;;;;;;;;6.00;64.50;;;;;;4124156;28;19928;-85
2023/04/27 06:43:51;;;;;;;;;;;6.00;63.80;;;;;;4110599;28;20427;-88
2023/04/27 06:45:51;;;;;;;;;;;6.00;63.40;;;;;;4128208;28;19976;-87
2023/04/27 06:47:52;;;;;;;;;;;6.10;63.10;;;;;;4128374;28;19917;-84
2023/04/27 06:49:52;;;;;;;;;;;6.10;62.60;;;;;;4122823;28;19936;-87
2023/04/27 06:51:53;;;;;;;;;;;6.10;62.10;;;;;;4129049;28;20471;-86
2023/04/27 06:53:56;;;;;;;;;;;6.20;61.90;;;;;;4127280;28;19922;-85
2023/04/27 06:55:56;;;;;;;;;;;6.30;61.80;;;;;;4112192;28;20077;-85
2023/04/27 06:57:57;;;;;;;;;;;6.40;61.90;;;;;;4122803;28;19944;-84
2023/04/27 06:59:57;;;;;;;;;;;6.40;61.60;;;;;;4122175;28;19913;-88
2023/04/27 07:01:58;;;;;;;;;;;6.40;61.90;;;;;;4128757;28;19914;-85
2023/04/27 07:03:58;;;;;;;;;;;6.50;61.70;;;;;;4123375;28;19914;-85
2023/04/27 07:05:59;;;;;;;;;;;6.60;61.00;;;;;;4122712;28;19992;-84
2023/04/27 07:08:00;;;;;;;;;;;6.60;60.50;;;;;;4122738;28;19929;-87
2023/04/27 07:10:00;;;;;;;;;;;6.70;60.40;;;;;;4143583;28;19922;-85
2023/04/27 07:12:01;;;;;;;;;;;6.70;59.90;;;;;;4128832;28;19918;-85
2023/04/27 07:14:02;;;;;;;;;;;6.80;59.90;;;;;;4138365;28;19921;-87
2023/04/27 07:16:03;;;;;;;;;;;6.90;59.60;;;;;;4126802;28;19920;-85
2023/04/27 07:18:03;;;;;;;;;;;6.90;59.80;;;;;;4124045;28;19918;-88
2023/04/27 07:20:05;;;;;;;;;;;7.00;59.70;;;;;;4129187;28;19922;-85
2023/04/27 07:22:05;;;;;;;;;;;7.10;59.60;;;;;;4129333;28;19937;-85
2023/04/27 07:24:06;;;;;;;;;;;7.20;59.20;;;;;;4129432;28;19926;-85
2023/04/27 07:26:07;;;;;;;;;;;7.20;58.70;;;;;;4122256;28;20324;-84
2023/04/27 07:28:10;;;;;;;;;;;7.20;58.30;;;;;;4130730;28;19974;-86
2023/04/27 07:30:12;;;;;;;;;;;7.30;58.40;;;;;;4106055;28;19957;-89
2023/04/27 07:32:13;;;;;;;;;;;7.30;58.30;;;;;;4126275;28;19973;-88
2023/04/27 07:34:14;;;;;;;;;;;7.40;58.00;;;;;;4122008;28;19937;-85
2023/04/27 07:36:15;;;;;;;;;;;7.40;58.00;;;;;;4123074;28;20070;-85
2023/04/27 07:38:16;;;;;;;;;;;7.50;58.20;;;;;;4128792;28;19980;-86
2023/04/27 07:40:17;;;;;;;;;;;7.50;58.10;;;;;;4123360;28;19961;-85
2023/04/27 07:44:27;;;;;;;;;;;7.70;57.10;;;;;;4142846;28;19925;-88
2023/04/27 07:46:30;;;;;;;;;;;7.70;56.40;;;;;;4132248;28;19914;-88
2023/04/27 07:48:31;;;;;;;;;;;7.80;55.60;;;;;;4132983;28;19921;-87
2023/04/27 07:50:32;;;;;;;;;;;7.80;56.00;;;;;;4141805;28;20048;-87
2023/04/27 07:52:45;;;;;;;;;;;7.90;55.80;;;;;;4128834;28;20012;-86
2023/04/27 07:54:46;;;;;;;;;;;7.90;56.00;;;;;;4130054;28;20375;-87
2023/04/27 07:56:46;;;;;;;;;;;8.00;56.00;;;;;;4116217;28;19914;-88
2023/04/27 07:58:47;;;;;;;;;;;8.10;56.00;;;;;;4116615;28;19924;-87
2023/04/27 08:00:48;;;;;;;;;;;8.20;56.30;;;;;;4129709;28;19928;-88
2023/04/27 08:02:49;;;;;;;;;;;8.10;55.90;;;;;;4131131;28;19917;-87
2023/04/27 08:04:50;;;;;;;;;;;8.30;55.90;;;;;;4116174;28;19917;-88
2023/04/27 08:06:50;;;;;;;;;;;8.30;55.10;;;;;;4131564;28;19917;-87
2023/04/27 08:08:57;;;;;;;;;;;8.40;54.60;;;;;;4134703;28;20573;-87
2023/04/27 08:10:57;;;;;;;;;;;8.40;53.90;;;;;;4132895;28;19953;-88
2023/04/27 08:12:58;;;;;;;;;;;8.60;54.20;;;;;;4116637;28;20332;-87
2023/04/27 08:14:59;;;;;;;;;;;8.50;53.90;;;;;;4119914;28;19960;-88
2023/04/27 08:16:59;;;;;;;;;;;8.60;53.50;;;;;;4134094;28;19913;-87
2023/04/27 08:19:00;;;;;;;;;;;8.60;53.80;;;;;;4132933;28;19936;-88
2023/04/27 08:21:01;;;;;;;;;;;8.70;54.10;;;;;;4129576;28;19928;-88
2023/04/27 08:23:01;;;;;;;;;;;8.80;54.10;;;;;;4130708;28;19913;-89
2023/04/27 08:25:03;;;;;;;;;;;8.80;53.40;;;;;;4136106;28;19967;-89
2023/04/27 08:27:07;;;;;;;;;;;8.80;53.50;;;;;;4135302;28;19989;-87
2023/04/27 08:29:10;;;;;;;;;;;8.80;52.60;;;;;;4145202;28;19940;-90
2023/04/27 08:31:11;;;;;;;;;;;8.80;51.70;;;;;;4140269;28;19933;-87
2023/04/27 08:33:12;;;;;;;;;;;8.90;51.30;;;;;;4131935;28;19913;-87
2023/04/27 08:35:17;;;;;;;;;;;8.90;50.00;;;;;;4134008;28;19921;-87
2023/04/27 08:37:34;;;;;;;;;;;9.00;49.50;;;;;;4118212;28;19914;-88
2023/04/27 08:39:35;;;;;;;;;;;9.00;49.50;;;;;;4126223;28;20399;-88
2023/04/27 08:41:36;;;;;;;;;;;9.10;50.10;;;;;;4132562;28;19917;-88
2023/04/27 08:43:36;;;;;;;;;;;9.10;50.10;;;;;;4129134;28;19955;-86
2023/04/27 08:45:38;;;;;;;;;;;9.20;49.80;;;;;;4130156;28;20008;-88
2023/04/27 08:47:38;;;;;;;;;;;9.20;49.90;;;;;;4131725;28;19922;-89
2023/04/27 08:49:40;;;;;;;;;;;9.40;50.60;;;;;;4123153;28;20000;-88
2023/04/27 08:51:41;;;;;;;;;;;9.40;50.50;;;;;;4128695;28;19918;-88
2023/04/27 08:53:47;;;;;;;;;;;9.40;49.70;;;;;;4124185;28;19918;-89
2023/04/27 08:55:50;;;;;;;;;;;9.40;49.40;;;;;;4132244;28;19914;-88
2023/04/27 08:57:55;;;;;;;;;;;9.40;49.20;;;;;;4126312;28;19922;-87
2023/04/27 09:00:10;;;;;;;;;;;9.40;49.40;;;;;;4124334;28;19921;-88
2023/04/27 09:02:18;;;;;;;;;;;9.40;49.40;;;;;;4126862;28;19925;-88
2023/04/27 09:04:18;;;;;;;;;;;9.40;49.70;;;;;;4126113;28;20389;-88
2023/04/27 09:06:27;;;;;;;;;;;9.40;49.30;;;;;;4128925;28;19910;-87
2023/04/27 09:08:28;;;;;;;;;;;9.50;49.20;;;;;;4129594;28;19914;-88
2023/04/27 09:10:29;;;;;;;;;;;9.40;48.70;;;;;;4126132;28;20026;-89
2023/04/27 09:12:29;;;;;;;;;;;9.40;47.30;;;;;;4128109;28;19918;-87
2023/04/27 09:14:34;;;;;;;;;;;9.40;46.40;;;;;;4123230;28;19922;-88
2023/04/27 09:16:35;;;;;;;;;;;9.40;46.70;;;;;;4130746;28;19913;-89
2023/04/27 09:18:36;;;;;;;;;;;9.40;46.90;;;;;;4131986;28;19957;-89
2023/04/27 09:20:47;;;;;;;;;;;9.40;47.10;;;;;;4128266;28;19918;-88
2023/04/27 09:22:51;;;;;;;;;;;9.50;47.40;;;;;;4133070;28;19916;-88
2023/04/27 09:24:52;;;;;;;;;;;9.60;47.60;;;;;;4135286;28;19934;-89
2023/04/27 09:26:52;;;;;;;;;;;9.70;47.80;;;;;;4145814;28;19918;-88
2023/04/27 09:28:56;;;;;;;;;;;9.70;48.20;;;;;;4131703;28;19998;-88
2023/04/27 09:30:58;;;;;;;;;;;9.80;47.40;;;;;;4128457;28;19918;-89
2023/04/27 09:33:02;;;;;;;;;;;9.80;47.30;;;;;;4125401;28;19910;-87
2023/04/27 09:35:13;;;;;;;;;;;9.90;46.80;;;;;;4127514;28;20329;-87
2023/04/27 09:37:14;;;;;;;;;;;9.90;45.70;;;;;;4129381;28;19917;-88
2023/04/27 09:39:15;;;;;;;;;;;9.90;45.20;;;;;;4131622;28;19941;-89
2023/04/27 09:41:15;;;;;;;;;;;9.90;45.60;;;;;;4110739;28;19914;-88
2023/04/27 09:43:16;;;;;;;;;;;9.90;46.40;;;;;;4111397;28;19969;-88
2023/04/27 09:45:18;;;;;;;;;;;9.90;46.40;;;;;;4110046;28;19937;-89
2023/04/27 09:47:19;;;;;;;;;;;9.80;46.70;;;;;;4115264;28;19990;-88
2023/04/27 09:49:20;;;;;;;;;;;9.90;47.10;;;;;;4111892;28;19930;-88
2023/04/27 09:51:21;;;;;;;;;;;9.90;47.10;;;;;;4128968;28;19914;-88
2023/04/27 09:53:23;;;;;;;;;;;9.80;47.40;;;;;;4114067;28;19960;-87
2023/04/27 09:55:27;;;;;;;;;;;9.90;47.80;;;;;;4131761;28;20046;-86
2023/04/27 09:57:42;;;;;;;;;;;9.80;48.30;;;;;;4117535;28;19922;-86
2023/04/27 09:59:48;;;;;;;;;;;9.80;48.70;;;;;;4130187;28;19920;-89
2023/04/27 10:01:50;;;;;;;;;;;9.80;47.10;;;;;;4130326;28;20013;-87
2023/04/27 10:04:02;;;;;;;;;;;9.90;46.30;;;;;;4131035;28;19917;-87
2023/04/27 10:06:22;;;;;;;;;;;9.90;46.00;;;;;;4130290;28;19921;-86
2023/04/27 10:08:23;;;;;;;;;;;9.90;45.80;;;;;;4116706;28;19910;-87
2023/04/27 10:10:24;;;;;;;;;;;10.00;46.80;;;;;;4127775;28;19960;-87
2023/04/27 10:12:33;;;;;;;;;;;10.00;45.70;;;;;;4133366;28;19918;-86
2023/04/27 10:14:33;;;;;;;;;;;10.00;45.20;;;;;;4127762;28;20033;-86
2023/04/27 10:16:47;;;;;;;;;;;10.10;45.30;;;;;;4133514;28;20230;-87
2023/04/27 10:18:54;;;;;;;;;;;10.00;44.30;;;;;;4130092;28;19917;-87
2023/04/27 10:20:55;;;;;;;;;;;10.10;44.70;;;;;;4130238;28;20403;-88
2023/04/27 10:22:55;;;;;;;;;;;10.10;44.80;;;;;;4130841;28;19920;-87
2023/04/27 10:24:56;;;;;;;;;;;10.10;44.50;;;;;;4117357;28;19958;-87
2023/04/27 10:27:02;;;;;;;;;;;10.00;44.60;;;;;;4134248;28;19914;-88
2023/04/27 10:29:06;;;;;;;;;;;10.00;44.20;;;;;;4135038;28;19915;-86
2023/04/27 10:31:12;;;;;;;;;;;9.90;44.60;;;;;;4151462;28;20022;-87
2023/04/27 10:33:21;;;;;;;;;;;9.90;44.80;;;;;;4146386;28;19909;-87
2023/04/27 10:35:43;;;;;;;;;;;10.00;45.00;;;;;;4129069;28;20539;-87
2023/04/27 10:37:43;;;;;;;;;;;10.00;44.80;;;;;;4145987;28;19917;-87
2023/04/27 10:39:44;;;;;;;;;;;10.00;44.70;;;;;;4131925;28;20029;-90
2023/04/27 10:41:48;;;;;;;;;;;10.10;43.60;;;;;;4135975;28;19913;-88
2023/04/27 10:43:48;;;;;;;;;;;10.10;43.20;;;;;;4132606;28;19944;-88
2023/04/27 10:45:49;;;;;;;;;;;10.10;43.70;;;;;;4146119;28;19918;-87
2023/04/27 10:47:56;;;;;;;;;;;10.10;43.20;;;;;;4135306;28;19913;-88
2023/04/27 10:49:58;;;;;;;;;;;10.20;43.00;;;;;;4131449;28;20321;-88
2023/04/27 10:52:03;;;;;;;;;;;10.30;42.90;;;;;;4116980;28;20317;-88
2023/04/27 10:54:05;;;;;;;;;;;10.30;44.10;;;;;;4130389;28;19996;-88
2023/04/27 10:56:06;;;;;;;;;;;10.40;44.80;;;;;;4136983;28;19925;-88
2023/04/27 10:58:07;;;;;;;;;;;10.40;44.80;;;;;;4136343;28;19944;-88
2023/04/27 11:00:12;;;;;;;;;;;10.40;45.20;;;;;;4116744;28;19910;-90
2023/04/27 11:02:13;;;;;;;;;;;10.50;45.80;;;;;;4131157;28;19918;-87
2023/04/27 11:04:16;;;;;;;;;;;10.60;44.80;;;;;;4114693;28;19926;-87
2023/04/27 11:06:16;;;;;;;;;;;10.70;45.00;;;;;;4131713;28;19936;-87
2023/04/27 11:08:17;;;;;;;;;;;10.70;45.10;;;;;;4130130;28;19914;-88
2023/04/27 11:10:18;;;;;;;;;;;10.80;44.50;;;;;;4126989;28;19910;-88
2023/04/27 11:12:19;;;;;;;;;;;10.80;44.80;;;;;;4130739;28;19921;-87
2023/04/27 11:14:22;;;;;;;;;;;10.90;44.50;;;;;;4132520;28;19980;-87
2023/04/27 11:16:23;;;;;;;;;;;11.00;44.40;;;;;;4129496;28;20641;-90
2023/04/27 11:18:29;;;;;;;;;;;11.00;44.00;;;;;;4126076;28;19918;-88
2023/04/27 11:20:30;;;;;;;;;;;11.00;43.30;;;;;;4129806;28;19924;-88
2023/04/27 11:22:31;;;;;;;;;;;11.00;42.50;;;;;;4116860;28;19918;-89
2023/04/27 11:24:32;;;;;;;;;;;11.00;42.40;;;;;;4134824;28;19909;-88
2023/04/27 11:26:32;;;;;;;;;;;11.00;42.70;;;;;;4133280;28;19956;-89
2023/04/27 11:28:33;;;;;;;;;;;11.00;41.90;;;;;;4130204;28;19932;-89
2023/04/27 11:30:33;;;;;;;;;;;10.90;42.50;;;;;;4129387;28;19920;-88
2023/04/27 11:32:35;;;;;;;;;;;11.00;43.00;;;;;;4120378;28;20049;-87
2023/04/27 11:34:37;;;;;;;;;;;10.90;41.90;;;;;;4114510;28;19922;-87
2023/04/27 11:36:38;;;;;;;;;;;10.80;42.30;;;;;;4125580;28;19965;-89
2023/04/27 11:38:40;;;;;;;;;;;10.80;43.30;;;;;;4127324;28;19917;-90
2023/04/27 11:43:42;;;;;;;;;;;10.70;43.50;;;;;;4119053;28;20279;-89
2023/04/27 11:46:26;;;;;;;;;;;10.70;43.90;;;;;;4109986;28;20344;-88
2023/04/27 11:48:27;;;;;;;;;;;10.70;43.60;;;;;;4140722;28;19920;-88
2023/04/27 11:50:28;;;;;;;;;;;10.70;43.80;;;;;;4128047;28;19953;-88
2023/04/27 11:52:44;;;;;;;;;;;10.60;43.30;;;;;;4136691;28;19913;-88
2023/04/27 12:04:30;;;;;;;;;;;10.40;44.60;;;;;;4017687;29;19927;-88
2023/04/27 12:09:42;;;;;;;;;;;10.20;44.40;;;;;;3997030;29;19977;-88
2023/04/27 12:11:42;;;;;;;;;;;10.10;45.60;;;;;;4033368;29;19912;-87
2023/04/27 12:13:43;;;;;;;;;;;10.10;45.50;;;;;;4080986;28;19977;-88
2023/04/27 12:15:44;;;;;;;;;;;10.20;45.90;;;;;;4139293;28;20544;-89
2023/04/27 12:17:45;;;;;;;;;;;10.00;46.50;;;;;;4123150;28;19948;-87
2023/04/27 12:19:45;;;;;;;;;;;10.00;46.70;;;;;;4109149;28;19953;-89
2023/04/27 12:21:46;;;;;;;;;;;10.00;46.70;;;;;;4123591;28;19910;-88
2023/04/27 12:23:46;;;;;;;;;;;10.00;46.50;;;;;;4122262;28;20244;-87